createdAt,value
2023-04-14T00:00:02.340Z,9.29
2023-04-14T00:02:39.978Z,9.24
2023-04-14T00:05:08.599Z,9.31
2023-04-14T00:07:36.126Z,9.20
2023-04-14T00:10:03.595Z,9.42
2023-04-14T00:12:31.404Z,8.91
2023-04-14T00:14:58.749Z,9.18
2023-04-14T00:17:26.114Z,9.30
2023-04-14T00:19:53.890Z,9.44
2023-04-14T00:22:22.303Z,9.56
2023-04-14T00:24:50.946Z,9.79
2023-04-14T00:27:18.561Z,9.64
2023-04-14T00:29:45.835Z,9.55
2023-04-14T00:32:13.098Z,9.51
2023-04-14T00:34:40.690Z,9.76
2023-04-14T00:37:08.146Z,9.67
2023-04-14T00:39:35.579Z,9.76
2023-04-14T00:42:03.603Z,9.91
2023-04-14T00:44:30.967Z,9.41
2023-04-14T00:46:59.509Z,9.57
2023-04-14T00:49:27.260Z,9.20
2023-04-14T00:51:56.373Z,9.23
2023-04-14T00:54:25.133Z,9.15
2023-04-14T00:56:54.170Z,9.34
2023-04-14T00:59:22.424Z,9.46
2023-04-14T01:01:49.830Z,9.55
2023-04-14T01:04:20.511Z,8.86
2023-04-14T01:06:48.077Z,8.78
2023-04-14T01:09:16.641Z,8.72
2023-04-14T01:12:07.476Z,8.75
2023-04-14T01:15:08.984Z,8.74
2023-04-14T01:17:54.663Z,8.76
2023-04-14T01:20:50.290Z,8.90
2023-04-14T01:23:30.114Z,8.84
2023-04-14T01:26:09.772Z,8.72
2023-04-14T01:29:01.455Z,8.53
2023-04-14T01:31:31.524Z,8.56
2023-04-14T01:34:22.582Z,8.38
2023-04-14T01:37:06.965Z,8.53
2023-04-14T01:39:43.290Z,8.41
2023-04-14T01:42:15.471Z,8.38
2023-04-14T01:44:44.385Z,8.57
2023-04-14T01:47:15.870Z,8.64
2023-04-14T01:49:46.256Z,8.73
2023-04-14T01:52:16.534Z,8.61
2023-04-14T01:54:48.376Z,8.31
2023-04-14T01:57:19.509Z,8.35
2023-04-14T01:59:52.207Z,8.67
2023-04-14T02:02:21.565Z,8.40
2023-04-14T02:04:51.190Z,8.36
2023-04-14T02:07:21.945Z,8.33
2023-04-14T02:09:51.024Z,8.32
2023-04-14T02:12:20.433Z,8.34
2023-04-14T02:14:51.786Z,8.47
2023-04-14T02:17:21.865Z,8.56
2023-04-14T02:19:49.889Z,8.60
2023-04-14T02:22:17.225Z,8.44
2023-04-14T02:24:44.638Z,8.41
2023-04-14T02:27:17.930Z,8.40
2023-04-14T02:29:50.867Z,8.43
2023-04-14T02:32:25.030Z,8.54
2023-04-14T02:35:13.883Z,8.49
2023-04-14T02:37:47.795Z,8.66
2023-04-14T02:40:25.750Z,8.75
2023-04-14T02:43:00.569Z,8.92
2023-04-14T02:45:30.770Z,8.96
2023-04-14T02:48:03.142Z,9.09
2023-04-14T02:50:33.427Z,9.08
2023-04-14T02:53:03.449Z,9.17
2023-04-14T02:55:31.900Z,9.22
2023-04-14T02:58:00.321Z,9.29
2023-04-14T03:00:29.212Z,9.35
2023-04-14T03:02:58.798Z,9.40
2023-04-14T03:05:26.783Z,9.37
2023-04-14T03:07:56.221Z,9.36
2023-04-14T03:10:25.302Z,9.26
2023-04-14T03:12:54.931Z,9.11
2023-04-14T03:15:26.095Z,8.90
2023-04-14T03:17:57.429Z,8.83
2023-04-14T03:20:26.613Z,9.03
2023-04-14T03:22:58.505Z,8.81
2023-04-14T03:25:33.211Z,8.71
2023-04-14T03:28:04.108Z,8.47
2023-04-14T03:30:34.901Z,8.51
2023-04-14T03:33:06.714Z,8.33
2023-04-14T03:35:36.965Z,8.30
2023-04-14T03:38:11.408Z,8.25
2023-04-14T03:40:48.372Z,8.11
2023-04-14T03:43:22.798Z,8.08
2023-04-14T03:45:52.978Z,7.93
2023-04-14T03:48:26.419Z,7.92
2023-04-14T03:50:57.873Z,8.05
2023-04-14T03:53:26.512Z,7.79
2023-04-14T03:55:59.412Z,7.67
2023-04-14T03:58:29.644Z,7.72
2023-04-14T04:00:58.253Z,7.58
2023-04-14T04:03:27.390Z,7.77
2023-04-14T04:05:56.137Z,7.70
2023-04-14T04:08:24.767Z,7.65
2023-04-14T04:10:55.132Z,7.45
2023-04-14T04:13:25.519Z,7.53
2023-04-14T04:15:55.389Z,7.63
2023-04-14T04:18:24.324Z,7.64
2023-04-14T04:20:53.489Z,7.61
2023-04-14T04:23:24.689Z,7.79
2023-04-14T04:25:53.651Z,7.97
2023-04-14T04:28:21.745Z,7.79
2023-04-14T04:30:51.726Z,8.01
2023-04-14T04:33:21.596Z,8.02
2023-04-14T04:35:50.961Z,7.99
2023-04-14T04:38:20.851Z,7.96
2023-04-14T04:40:49.143Z,7.97
2023-04-14T04:43:19.313Z,8.01
2023-04-14T04:46:02.617Z,7.90
2023-04-14T04:48:31.040Z,7.90
2023-04-14T04:50:58.548Z,7.97
2023-04-14T04:53:26.667Z,7.94
2023-04-14T04:55:56.144Z,7.98
2023-04-14T04:58:23.554Z,8.02
2023-04-14T05:00:50.782Z,8.16
2023-04-14T05:03:18.431Z,8.19
2023-04-14T05:05:45.723Z,8.11
2023-04-14T05:08:15.033Z,8.11
2023-04-14T05:10:44.273Z,8.28
2023-04-14T05:13:12.251Z,8.42
2023-04-14T05:15:39.771Z,8.78
2023-04-14T05:18:08.031Z,8.82
2023-04-14T05:20:35.430Z,8.69
2023-04-14T05:23:07.044Z,8.91
2023-04-14T05:25:36.548Z,9.02
2023-04-14T05:28:04.378Z,8.99
2023-04-14T05:30:31.631Z,8.84
2023-04-14T05:32:59.392Z,8.79
2023-04-14T05:35:26.935Z,8.87
2023-04-14T05:37:54.488Z,9.11
2023-04-14T05:40:22.788Z,9.30
2023-04-14T05:42:50.754Z,9.36
2023-04-14T05:45:18.290Z,9.31
2023-04-14T05:47:47.940Z,9.09
2023-04-14T05:50:16.788Z,9.21
2023-04-14T05:52:44.315Z,9.17
2023-04-14T05:55:12.447Z,9.32
2023-04-14T05:57:39.810Z,9.50
2023-04-14T06:00:08.376Z,9.76
2023-04-14T06:02:41.339Z,10.00
2023-04-14T06:05:09.554Z,10.13
2023-04-14T06:07:37.845Z,10.32
2023-04-14T06:10:06.793Z,10.39
2023-04-14T06:12:35.154Z,10.57
2023-04-14T06:15:03.742Z,10.52
2023-04-14T06:17:32.543Z,10.64
2023-04-14T06:20:11.276Z,10.57
2023-04-14T06:22:40.652Z,10.57
2023-04-14T06:25:08.526Z,10.70
2023-04-14T06:27:36.926Z,10.70
2023-04-14T06:30:06.326Z,10.69
2023-04-14T06:32:34.706Z,10.75
2023-04-14T06:35:05.200Z,10.83
2023-04-14T06:37:33.080Z,10.83
2023-04-14T06:40:01.827Z,10.94
2023-04-14T06:42:29.343Z,11.05
2023-04-14T06:44:56.700Z,11.10
2023-04-14T06:47:25.913Z,11.16
2023-04-14T06:49:54.580Z,11.24
2023-04-14T06:52:22.572Z,11.38
2023-04-14T06:54:51.501Z,11.45
2023-04-14T06:57:19.101Z,11.51
2023-04-14T06:59:47.900Z,11.45
2023-04-14T07:02:16.140Z,11.54
2023-04-14T07:04:43.878Z,11.61
2023-04-14T07:07:12.124Z,11.46
2023-04-14T07:09:42.518Z,11.53
2023-04-14T07:12:17.795Z,11.48
2023-04-14T07:14:52.282Z,11.52
2023-04-14T07:17:20.358Z,11.83
2023-04-14T07:19:48.000Z,12.20
2023-04-14T07:22:15.320Z,12.32
2023-04-14T07:24:42.929Z,12.65
2023-04-14T07:27:15.802Z,12.87
2023-04-14T07:29:43.371Z,12.97
2023-04-14T07:32:13.523Z,13.03
2023-04-14T07:34:44.072Z,13.42
2023-04-14T07:37:12.057Z,13.68
2023-04-14T07:39:39.934Z,13.76
2023-04-14T07:42:07.516Z,13.97
2023-04-14T07:44:36.185Z,13.53
2023-04-14T07:47:03.664Z,13.42
2023-04-14T07:49:31.770Z,13.80
2023-04-14T07:52:00.300Z,13.85
2023-04-14T07:54:29.382Z,13.98
2023-04-14T07:56:57.906Z,13.88
2023-04-14T07:59:25.570Z,13.88
2023-04-14T08:01:53.016Z,13.91
2023-04-14T08:04:20.829Z,14.09
2023-04-14T08:06:48.255Z,14.33
2023-04-14T08:09:15.824Z,14.42
2023-04-14T08:11:43.768Z,14.44
2023-04-14T08:14:11.927Z,15.05
2023-04-14T08:16:40.127Z,15.11
2023-04-14T08:19:09.487Z,15.09
2023-04-14T08:21:36.902Z,15.07
2023-04-14T08:24:04.457Z,15.44
2023-04-14T08:26:33.294Z,15.69
2023-04-14T08:29:02.312Z,15.98
2023-04-14T08:31:30.205Z,16.07
2023-04-14T08:33:57.912Z,16.27
2023-04-14T08:36:26.328Z,16.73
2023-04-14T08:38:54.850Z,16.84
2023-04-14T08:41:23.674Z,17.15
2023-04-14T08:43:52.018Z,16.95
2023-04-14T08:46:20.844Z,17.24
2023-04-14T08:48:53.620Z,17.57
2023-04-14T08:51:30.475Z,17.42
2023-04-14T08:54:00.558Z,17.83
2023-04-14T08:56:33.773Z,17.94
2023-04-14T08:59:02.209Z,18.02
2023-04-14T09:01:30.352Z,18.51
2023-04-14T09:03:58.793Z,18.81
2023-04-14T09:06:28.188Z,19.03
2023-04-14T09:08:55.636Z,19.00
2023-04-14T09:11:23.017Z,19.32
2023-04-14T09:13:51.017Z,19.28
2023-04-14T09:16:19.588Z,20.05
2023-04-14T09:18:47.531Z,20.80
2023-04-14T09:21:49.329Z,21.04
2023-04-14T09:24:06.349Z,21.30
2023-04-14T09:26:34.120Z,19.95
2023-04-14T09:29:01.607Z,19.60
2023-04-14T09:31:30.029Z,20.00
2023-04-14T09:33:58.367Z,19.56
2023-04-14T09:36:29.194Z,19.96
2023-04-14T09:38:57.462Z,19.04
2023-04-14T09:41:28.185Z,19.04
2023-04-14T09:43:55.888Z,19.06
2023-04-14T09:46:23.355Z,18.91
2023-04-14T09:48:52.513Z,19.07
2023-04-14T09:51:24.049Z,19.37
2023-04-14T09:53:53.249Z,19.61
2023-04-14T09:56:26.243Z,19.83
2023-04-14T09:59:02.178Z,19.80
2023-04-14T10:01:32.736Z,19.73
2023-04-14T10:04:03.013Z,19.74
2023-04-14T10:06:33.938Z,19.69
2023-04-14T10:09:02.144Z,19.78
2023-04-14T10:11:32.987Z,19.62
2023-04-14T10:14:06.453Z,19.32
2023-04-14T10:16:35.134Z,19.16
2023-04-14T10:19:03.880Z,19.06
2023-04-14T10:21:31.847Z,19.00
2023-04-14T10:24:00.984Z,18.78
2023-04-14T10:26:30.176Z,18.73
2023-04-14T10:28:58.028Z,18.60
2023-04-14T10:31:27.833Z,18.88
2023-04-14T10:33:55.701Z,19.10
2023-04-14T10:36:25.686Z,18.74
2023-04-14T10:39:05.559Z,18.47
2023-04-14T10:41:55.180Z,18.23
2023-04-14T10:44:23.846Z,17.89
2023-04-14T10:46:52.508Z,17.89
2023-04-14T10:49:25.366Z,18.56
2023-04-14T10:51:53.042Z,19.22
2023-04-14T10:54:20.461Z,19.32
2023-04-14T10:57:11.353Z,19.30
2023-04-14T10:59:43.567Z,17.44
2023-04-14T11:02:28.635Z,17.19
2023-04-14T11:05:11.787Z,17.54
2023-04-14T11:07:47.348Z,17.58
2023-04-14T11:10:23.788Z,17.21
2023-04-14T11:13:06.108Z,17.59
2023-04-14T11:15:52.008Z,17.42
2023-04-14T11:18:33.488Z,17.34
2023-04-14T11:21:08.479Z,17.93
2023-04-14T11:23:36.998Z,18.28
2023-04-14T11:26:13.578Z,17.60
2023-04-14T11:28:43.082Z,17.82
2023-04-14T11:31:13.091Z,17.89
2023-04-14T11:33:42.319Z,17.55
2023-04-14T11:36:12.649Z,17.36
2023-04-14T11:38:42.996Z,17.28
2023-04-14T11:41:11.018Z,17.10
2023-04-14T11:43:38.871Z,17.15
2023-04-14T11:46:08.649Z,17.72
2023-04-14T11:48:38.137Z,18.03
2023-04-14T11:51:05.838Z,17.75
2023-04-14T11:53:34.785Z,18.56
2023-04-14T11:56:02.953Z,18.01
2023-04-14T11:58:30.587Z,17.82
2023-04-14T12:00:58.044Z,17.09
2023-04-14T12:03:28.893Z,17.00
2023-04-14T12:06:00.059Z,17.23
2023-04-14T12:08:33.122Z,17.13
2023-04-14T12:11:17.672Z,17.19
2023-04-14T12:13:47.381Z,16.94
2023-04-14T12:16:17.106Z,17.18
2023-04-14T12:18:45.202Z,17.13
2023-04-14T12:21:18.679Z,16.82
2023-04-14T12:23:50.789Z,16.32
2023-04-14T12:26:19.873Z,15.76
2023-04-14T12:28:56.091Z,15.14
2023-04-14T12:31:30.365Z,15.11
2023-04-14T12:34:04.302Z,15.13
2023-04-14T12:36:47.959Z,15.39
2023-04-14T12:39:17.191Z,15.62
2023-04-14T12:41:45.011Z,16.23
2023-04-14T12:44:20.930Z,16.25
2023-04-14T12:46:50.620Z,16.00
2023-04-14T12:49:36.482Z,15.65
2023-04-14T12:52:05.560Z,14.94
2023-04-14T12:54:55.293Z,14.21
2023-04-14T12:57:23.020Z,13.94
2023-04-14T12:59:50.892Z,13.57
2023-04-14T13:02:22.587Z,13.34
2023-04-14T13:04:50.864Z,12.95
2023-04-14T13:07:18.848Z,13.28
2023-04-14T13:09:46.157Z,12.52
2023-04-14T13:12:13.882Z,12.46
2023-04-14T13:14:41.552Z,12.22
2023-04-14T13:17:08.995Z,11.85
2023-04-14T13:19:36.850Z,11.27
2023-04-14T13:22:04.191Z,11.32
2023-04-14T13:24:31.636Z,10.40
2023-04-14T13:26:59.390Z,10.05
2023-04-14T13:29:26.796Z,9.48
2023-04-14T13:31:54.196Z,9.75
2023-04-14T13:34:21.918Z,9.61
2023-04-14T13:36:49.493Z,9.51
2023-04-14T13:39:17.151Z,9.22
2023-04-14T13:41:44.764Z,9.09
2023-04-14T13:44:12.969Z,8.87
2023-04-14T13:46:41.433Z,9.13
2023-04-14T13:49:09.495Z,9.01
2023-04-14T13:51:36.894Z,8.30
2023-04-14T13:54:04.333Z,8.52
2023-04-14T13:56:31.985Z,8.51
2023-04-14T13:58:59.497Z,8.59
2023-04-14T14:01:27.635Z,8.72
2023-04-14T14:03:55.824Z,8.66
2023-04-14T14:06:23.385Z,8.85
2023-04-14T14:09:06.404Z,8.73
2023-04-14T14:11:34.994Z,8.61
2023-04-14T14:14:02.562Z,8.57
2023-04-14T14:16:36.675Z,8.53
2023-04-14T14:19:07.460Z,8.86
2023-04-14T14:21:34.878Z,8.74
2023-04-14T14:24:02.255Z,8.63
2023-04-14T14:26:30.214Z,8.86
2023-04-14T14:28:57.802Z,8.79
2023-04-14T14:31:25.280Z,8.98
2023-04-14T14:33:52.934Z,8.87
2023-04-14T14:36:20.601Z,8.93
2023-04-14T14:38:47.984Z,9.07
2023-04-14T14:41:15.804Z,9.12
2023-04-14T14:43:43.246Z,9.33
2023-04-14T14:46:10.635Z,9.52
2023-04-14T14:48:38.480Z,9.63
2023-04-14T14:51:06.197Z,9.79
2023-04-14T14:53:33.605Z,9.90
2023-04-14T14:56:01.261Z,9.90
2023-04-14T14:58:28.666Z,9.90
2023-04-14T15:00:56.015Z,10.10
2023-04-14T15:03:24.626Z,10.30
2023-04-14T15:05:52.790Z,10.47
2023-04-14T15:08:20.310Z,10.59
2023-04-14T15:10:48.086Z,10.77
2023-04-14T15:13:15.500Z,11.54
2023-04-14T15:15:42.935Z,12.06
2023-04-14T15:18:11.509Z,12.44
2023-04-14T15:20:39.494Z,11.65
2023-04-14T15:23:07.398Z,12.12
2023-04-14T15:25:35.070Z,13.48
2023-04-14T15:28:02.527Z,15.27
2023-04-14T15:30:29.803Z,14.78
2023-04-14T15:32:58.473Z,14.43
2023-04-14T15:35:26.707Z,14.53
2023-04-14T15:37:54.031Z,15.13
2023-04-14T15:40:22.028Z,15.29
2023-04-14T15:42:49.357Z,16.22
2023-04-14T15:45:16.684Z,17.60
2023-04-14T15:47:46.412Z,18.02
2023-04-14T15:50:18.780Z,18.89
2023-04-14T15:52:51.045Z,18.57
2023-04-14T15:55:18.462Z,20.07
2023-04-14T15:57:46.415Z,18.43
2023-04-14T16:00:14.607Z,18.65
2023-04-14T16:02:42.801Z,18.29
2023-04-14T16:05:10.747Z,19.54
2023-04-14T16:07:39.010Z,19.78
2023-04-14T16:10:07.206Z,19.98
2023-04-14T16:12:35.445Z,19.22
2023-04-14T16:15:03.321Z,19.97
2023-04-14T16:17:31.781Z,20.96
2023-04-14T16:19:59.313Z,20.98
2023-04-14T16:22:27.833Z,19.23
2023-04-14T16:24:55.359Z,19.57
2023-04-14T16:27:23.044Z,18.70
2023-04-14T16:29:50.418Z,16.85
2023-04-14T16:32:18.108Z,15.97
2023-04-14T16:34:45.985Z,15.72
2023-04-14T16:37:13.432Z,14.58
2023-04-14T16:39:41.480Z,14.16
2023-04-14T16:42:09.674Z,13.70
2023-04-14T16:44:37.852Z,13.59
2023-04-14T16:47:05.165Z,12.93
2023-04-14T16:49:33.021Z,12.68
2023-04-14T16:52:01.288Z,12.62
2023-04-14T16:54:28.806Z,12.46
2023-04-14T16:56:56.423Z,12.20
2023-04-14T16:59:23.768Z,11.70
2023-04-14T17:01:51.463Z,11.76
2023-04-14T17:04:19.381Z,11.69
2023-04-14T17:06:47.154Z,11.60
2023-04-14T17:09:14.988Z,11.40
2023-04-14T17:11:42.741Z,11.40
2023-04-14T17:14:10.446Z,11.48
2023-04-14T17:16:38.390Z,11.65
2023-04-14T17:19:06.252Z,11.66
2023-04-14T17:21:33.572Z,10.97
2023-04-14T17:24:01.496Z,11.19
2023-04-14T17:26:29.448Z,11.18
2023-04-14T17:28:56.847Z,11.20
2023-04-14T17:31:24.207Z,11.10
2023-04-14T17:33:51.967Z,11.02
2023-04-14T17:36:19.564Z,11.03
2023-04-14T17:38:47.035Z,10.88
2023-04-14T17:41:14.755Z,10.96
2023-04-14T17:43:42.191Z,10.69
2023-04-14T17:46:10.418Z,10.39
2023-04-14T17:48:38.523Z,10.32
2023-04-14T17:51:06.370Z,10.18
2023-04-14T17:53:33.886Z,10.26
2023-04-14T17:56:01.619Z,10.21
2023-04-14T17:58:29.036Z,10.23
2023-04-14T18:00:56.493Z,10.02
2023-04-14T18:03:24.176Z,10.10
2023-04-14T18:05:51.785Z,9.92
2023-04-14T18:08:19.073Z,9.74
2023-04-14T18:10:46.728Z,9.85
2023-04-14T18:13:14.291Z,9.80
2023-04-14T18:15:42.236Z,9.73
2023-04-14T18:18:10.346Z,9.57
2023-04-14T18:20:37.748Z,8.57
2023-04-14T18:23:05.813Z,8.75
2023-04-14T18:28:04.262Z,8.39
2023-04-14T18:30:31.804Z,8.52
2023-04-14T18:33:01.286Z,8.54
2023-04-14T18:35:29.415Z,8.72
2023-04-14T18:37:56.824Z,8.85
2023-04-14T18:40:27.552Z,8.39
2023-04-14T18:42:57.463Z,8.54
2023-04-14T18:45:25.148Z,8.62
2023-04-14T18:47:52.436Z,8.37
2023-04-14T18:50:20.735Z,8.00
2023-04-14T18:52:49.480Z,8.01
2023-04-14T18:55:17.043Z,8.13
2023-04-14T18:57:44.363Z,8.07
2023-04-14T19:00:16.907Z,8.06
2023-04-14T19:02:44.368Z,8.09
2023-04-14T19:05:12.249Z,8.13
2023-04-14T19:07:39.652Z,7.86
2023-04-14T19:10:07.618Z,7.70
2023-04-14T19:12:37.974Z,7.51
2023-04-14T19:15:06.831Z,7.66
2023-04-14T19:17:34.660Z,7.88
2023-04-14T19:20:02.485Z,7.83
2023-04-14T19:22:29.926Z,7.67
2023-04-14T19:24:57.393Z,7.63
2023-04-14T19:27:25.323Z,7.74
2023-04-14T19:29:52.755Z,7.71
2023-04-14T19:32:20.177Z,7.36
2023-04-14T19:34:48.401Z,7.36
2023-04-14T19:37:15.835Z,7.67
2023-04-14T19:39:43.350Z,7.49
2023-04-14T19:42:11.002Z,7.55
2023-04-14T19:44:38.416Z,7.36
2023-04-14T19:47:06.273Z,7.16
2023-04-14T19:49:34.328Z,7.22
2023-04-14T19:52:01.944Z,7.04
2023-04-14T19:54:29.645Z,6.97
2023-04-14T19:56:57.428Z,6.77
2023-04-14T19:59:24.752Z,6.81
2023-04-14T20:01:52.308Z,6.72
2023-04-14T20:04:20.917Z,6.66
2023-04-14T20:06:48.568Z,6.57
2023-04-14T20:09:16.103Z,6.17
2023-04-14T20:11:43.837Z,6.39
2023-04-14T20:14:11.560Z,6.44
2023-04-14T20:16:38.990Z,6.42
2023-04-14T20:19:06.731Z,6.35
2023-04-14T20:21:34.917Z,6.41
2023-04-14T20:24:02.424Z,6.23
2023-04-14T20:26:30.219Z,6.26
2023-04-14T20:28:58.340Z,6.22
2023-04-14T20:31:25.828Z,6.22
2023-04-14T20:33:53.697Z,6.02
2023-04-14T20:36:21.695Z,6.18
2023-04-14T20:38:49.052Z,6.01
2023-04-14T20:41:16.875Z,5.86
2023-04-14T20:43:44.205Z,5.68
2023-04-14T20:46:11.769Z,5.96
2023-04-14T20:48:39.627Z,5.89
2023-04-14T20:51:07.450Z,5.88
2023-04-14T20:53:35.356Z,5.86
2023-04-14T20:56:03.366Z,5.81
2023-04-14T20:58:30.774Z,5.29
2023-04-14T21:00:58.686Z,5.43
2023-04-14T21:03:27.604Z,5.24
2023-04-14T21:05:55.293Z,5.38
2023-04-14T21:08:22.640Z,5.42
2023-04-14T21:11:16.353Z,5.51
2023-04-14T21:15:25.373Z,5.45
2023-04-14T21:16:26.183Z,5.53
2023-04-14T21:18:53.552Z,5.58
2023-04-14T21:21:21.624Z,5.30
2023-04-14T21:23:49.279Z,5.24
2023-04-14T21:26:16.934Z,5.18
2023-04-14T21:28:44.271Z,5.40
2023-04-14T21:31:11.953Z,5.52
2023-04-14T21:33:40.129Z,5.37
2023-04-14T21:36:09.709Z,5.48
2023-04-14T21:38:38.641Z,5.48
2023-04-14T21:41:08.058Z,5.09
2023-04-14T21:43:35.318Z,5.26
2023-04-14T21:46:03.743Z,5.01
2023-04-14T21:48:31.463Z,5.03
2023-04-14T21:50:58.683Z,5.16
2023-04-14T21:53:26.530Z,5.19
2023-04-14T21:56:09.249Z,5.44
2023-04-14T21:58:39.755Z,5.17
2023-04-14T22:01:10.543Z,4.48
2023-04-14T22:03:42.213Z,4.22
2023-04-14T22:06:12.523Z,4.55
2023-04-14T22:08:41.120Z,4.45
2023-04-14T22:11:08.650Z,4.42
2023-04-14T22:13:36.171Z,4.48
2023-04-14T22:16:03.964Z,4.12
2023-04-14T22:18:32.107Z,4.22
2023-04-14T22:20:59.433Z,4.48
2023-04-14T22:23:27.734Z,4.47
2023-04-14T22:25:55.039Z,4.48
2023-04-14T22:28:22.409Z,4.44
2023-04-14T22:30:50.078Z,4.34
2023-04-14T22:33:17.485Z,4.37
2023-04-14T22:35:45.101Z,4.52
2023-04-14T22:38:12.849Z,4.62
2023-04-14T22:40:40.252Z,4.13
2023-04-14T22:43:11.032Z,4.29
2023-04-14T22:45:39.423Z,4.28
2023-04-14T22:48:09.025Z,4.15
2023-04-14T22:50:37.138Z,4.31
2023-04-14T22:53:05.871Z,4.22
2023-04-14T22:55:33.486Z,4.18
2023-04-14T22:58:00.900Z,4.24
2023-04-14T23:00:28.856Z,4.43
2023-04-14T23:02:56.331Z,4.14
2023-04-14T23:05:23.712Z,4.30
2023-04-14T23:07:51.667Z,4.25
2023-04-14T23:10:19.416Z,4.33
2023-04-14T23:12:47.050Z,4.44
2023-04-14T23:15:14.692Z,4.22
2023-04-14T23:17:42.102Z,3.76
2023-04-14T23:20:09.719Z,3.43
2023-04-14T23:22:37.708Z,2.89
2023-04-14T23:25:05.456Z,2.62
2023-04-14T23:27:32.764Z,2.50
2023-04-14T23:30:00.729Z,2.78
2023-04-14T23:32:28.076Z,2.90
2023-04-14T23:34:55.777Z,2.83
2023-04-14T23:37:24.142Z,2.84
2023-04-14T23:39:51.505Z,2.98
2023-04-14T23:42:18.823Z,3.10
2023-04-14T23:44:46.700Z,3.29
2023-04-14T23:47:14.292Z,3.14
2023-04-14T23:49:41.570Z,3.24
2023-04-14T23:52:09.395Z,3.43
2023-04-14T23:54:36.805Z,3.39
2023-04-14T23:57:04.405Z,3.38
2023-04-14T23:59:32.084Z,3.47
